sensor_id;sensor_type;location;lat;lon;timestamp;temperature;humidity
23471;DHT22;11908;50.806;4.424;2022-09-30T00:01:37;8.30;99.90
23471;DHT22;11908;50.806;4.424;2022-09-30T00:04:07;8.40;99.90
23471;DHT22;11908;50.806;4.424;2022-09-30T00:06:34;8.30;99.90
23471;DHT22;11908;50.806;4.424;2022-09-30T00:09:00;8.30;99.90
23471;DHT22;11908;50.806;4.424;2022-09-30T00:11:28;8.20;99.90
23471;DHT22;11908;50.806;4.424;2022-09-30T00:13:56;8.20;99.90
23471;DHT22;11908;50.806;4.424;2022-09-30T00:16:24;8.30;99.90
23471;DHT22;11908;50.806;4.424;2022-09-30T00:18:52;8.30;99.90
23471;DHT22;11908;50.806;4.424;2022-09-30T00:21:19;8.20;99.90
23471;DHT22;11908;50.806;4.424;2022-09-30T00:23:45;8.20;99.90
23471;DHT22;11908;50.806;4.424;2022-09-30T00:26:14;8.30;99.90
23471;DHT22;11908;50.806;4.424;2022-09-30T00:28:40;8.20;99.90
23471;DHT22;11908;50.806;4.424;2022-09-30T00:31:10;8.10;99.90
23471;DHT22;11908;50.806;4.424;2022-09-30T00:33:36;8.00;99.90
23471;DHT22;11908;50.806;4.424;2022-09-30T00:36:02;8.00;99.90
23471;DHT22;11908;50.806;4.424;2022-09-30T00:38:28;8.00;99.90
23471;DHT22;11908;50.806;4.424;2022-09-30T00:40:54;8.00;99.90
23471;DHT22;11908;50.806;4.424;2022-09-30T00:43:44;8.10;99.90
23471;DHT22;11908;50.806;4.424;2022-09-30T00:48:57;8.00;99.90
23471;DHT22;11908;50.806;4.424;2022-09-30T00:51:34;8.00;99.90
23471;DHT22;11908;50.806;4.424;2022-09-30T00:54:09;8.00;99.90
23471;DHT22;11908;50.806;4.424;2022-09-30T00:56:58;8.00;99.90
23471;DHT22;11908;50.806;4.424;2022-09-30T00:59:28;8.00;99.90
23471;DHT22;11908;50.806;4.424;2022-09-30T01:01:55;8.00;99.90
23471;DHT22;11908;50.806;4.424;2022-09-30T01:04:23;8.00;99.90
23471;DHT22;11908;50.806;4.424;2022-09-30T01:06:50;8.00;99.90
23471;DHT22;11908;50.806;4.424;2022-09-30T01:09:17;8.00;99.90
23471;DHT22;11908;50.806;4.424;2022-09-30T01:11:43;7.90;99.90
23471;DHT22;11908;50.806;4.424;2022-09-30T01:14:23;7.90;99.90
23471;DHT22;11908;50.806;4.424;2022-09-30T01:17:03;7.80;99.90
23471;DHT22;11908;50.806;4.424;2022-09-30T01:36:37;7.70;99.90
23471;DHT22;11908;50.806;4.424;2022-09-30T01:42:09;7.70;99.90
23471;DHT22;11908;50.806;4.424;2022-09-30T01:51:02;7.70;99.90
23471;DHT22;11908;50.806;4.424;2022-09-30T01:53:53;7.70;99.90
23471;DHT22;11908;50.806;4.424;2022-09-30T01:56:21;7.60;99.90
23471;DHT22;11908;50.806;4.424;2022-09-30T01:59:03;7.70;99.90
23471;DHT22;11908;50.806;4.424;2022-09-30T02:01:45;7.60;99.90
23471;DHT22;11908;50.806;4.424;2022-09-30T02:04:17;7.60;99.90
23471;DHT22;11908;50.806;4.424;2022-09-30T02:06:49;7.70;99.90
23471;DHT22;11908;50.806;4.424;2022-09-30T02:09:24;7.70;99.90
23471;DHT22;11908;50.806;4.424;2022-09-30T02:11:52;7.60;99.90
23471;DHT22;11908;50.806;4.424;2022-09-30T02:15:00;7.60;99.90
23471;DHT22;11908;50.806;4.424;2022-09-30T02:17:45;7.60;99.90
23471;DHT22;11908;50.806;4.424;2022-09-30T02:20:23;7.60;99.90
23471;DHT22;11908;50.806;4.424;2022-09-30T02:22:55;7.60;99.90
23471;DHT22;11908;50.806;4.424;2022-09-30T02:25:26;7.60;99.90
23471;DHT22;11908;50.806;4.424;2022-09-30T02:27:59;7.60;99.90
23471;DHT22;11908;50.806;4.424;2022-09-30T02:30:28;7.60;99.90
23471;DHT22;11908;50.806;4.424;2022-09-30T02:33:00;7.70;99.90
23471;DHT22;11908;50.806;4.424;2022-09-30T02:35:28;7.50;99.90
23471;DHT22;11908;50.806;4.424;2022-09-30T02:38:05;7.50;99.90
23471;DHT22;11908;50.806;4.424;2022-09-30T02:40:45;7.50;99.90
23471;DHT22;11908;50.806;4.424;2022-09-30T02:43:12;7.40;99.90
23471;DHT22;11908;50.806;4.424;2022-09-30T02:45:55;7.40;99.90
23471;DHT22;11908;50.806;4.424;2022-09-30T02:48:32;7.40;99.90
23471;DHT22;11908;50.806;4.424;2022-09-30T02:51:15;7.30;99.90
23471;DHT22;11908;50.806;4.424;2022-09-30T02:53:46;7.30;99.90
23471;DHT22;11908;50.806;4.424;2022-09-30T02:56:52;7.30;99.90
23471;DHT22;11908;50.806;4.424;2022-09-30T02:59:21;7.40;99.90
23471;DHT22;11908;50.806;4.424;2022-09-30T03:01:46;7.30;99.90
23471;DHT22;11908;50.806;4.424;2022-09-30T03:04:15;7.30;99.90
23471;DHT22;11908;50.806;4.424;2022-09-30T03:06:42;7.30;99.90
23471;DHT22;11908;50.806;4.424;2022-09-30T03:09:08;7.40;99.90
23471;DHT22;11908;50.806;4.424;2022-09-30T03:11:35;7.30;99.90
23471;DHT22;11908;50.806;4.424;2022-09-30T03:14:06;7.30;99.90
23471;DHT22;11908;50.806;4.424;2022-09-30T03:27:14;7.20;99.90
23471;DHT22;11908;50.806;4.424;2022-09-30T03:29:50;7.20;99.90
23471;DHT22;11908;50.806;4.424;2022-09-30T03:33:15;7.20;99.90
23471;DHT22;11908;50.806;4.424;2022-09-30T03:38:31;7.10;99.90
23471;DHT22;11908;50.806;4.424;2022-09-30T03:41:24;7.10;99.90
23471;DHT22;11908;50.806;4.424;2022-09-30T03:43:59;7.10;99.90
23471;DHT22;11908;50.806;4.424;2022-09-30T03:46:45;7.10;99.90
23471;DHT22;11908;50.806;4.424;2022-09-30T03:49:16;7.10;99.90
23471;DHT22;11908;50.806;4.424;2022-09-30T03:51:45;7.20;99.90
23471;DHT22;11908;50.806;4.424;2022-09-30T03:54:12;7.10;99.90
23471;DHT22;11908;50.806;4.424;2022-09-30T03:56:38;7.10;99.90
23471;DHT22;11908;50.806;4.424;2022-09-30T03:59:26;7.10;99.90
23471;DHT22;11908;50.806;4.424;2022-09-30T04:01:54;7.10;99.90
23471;DHT22;11908;50.806;4.424;2022-09-30T04:04:23;7.00;99.90
23471;DHT22;11908;50.806;4.424;2022-09-30T04:06:49;7.00;99.90
23471;DHT22;11908;50.806;4.424;2022-09-30T04:09:15;7.00;99.90
23471;DHT22;11908;50.806;4.424;2022-09-30T04:11:41;6.90;99.90
23471;DHT22;11908;50.806;4.424;2022-09-30T04:14:07;6.90;99.90
23471;DHT22;11908;50.806;4.424;2022-09-30T04:16:33;6.90;99.90
23471;DHT22;11908;50.806;4.424;2022-09-30T04:18:59;7.00;99.90
23471;DHT22;11908;50.806;4.424;2022-09-30T04:21:24;7.00;99.90
23471;DHT22;11908;50.806;4.424;2022-09-30T04:23:53;7.00;99.90
23471;DHT22;11908;50.806;4.424;2022-09-30T04:26:19;7.00;99.90
23471;DHT22;11908;50.806;4.424;2022-09-30T04:28:45;7.00;99.90
23471;DHT22;11908;50.806;4.424;2022-09-30T04:31:12;7.00;99.90
23471;DHT22;11908;50.806;4.424;2022-09-30T04:33:38;6.90;99.90
23471;DHT22;11908;50.806;4.424;2022-09-30T04:36:05;6.90;99.90
23471;DHT22;11908;50.806;4.424;2022-09-30T04:38:31;6.80;99.90
23471;DHT22;11908;50.806;4.424;2022-09-30T04:41:04;6.80;99.90
23471;DHT22;11908;50.806;4.424;2022-09-30T04:43:30;6.80;99.90
23471;DHT22;11908;50.806;4.424;2022-09-30T04:45:56;6.70;99.90
23471;DHT22;11908;50.806;4.424;2022-09-30T04:48:22;6.80;99.90
23471;DHT22;11908;50.806;4.424;2022-09-30T04:50:49;6.80;99.90
23471;DHT22;11908;50.806;4.424;2022-09-30T04:53:15;6.80;99.90
23471;DHT22;11908;50.806;4.424;2022-09-30T04:55:41;6.90;99.90
23471;DHT22;11908;50.806;4.424;2022-09-30T04:58:07;6.80;99.90
23471;DHT22;11908;50.806;4.424;2022-09-30T05:00:33;6.80;99.90
23471;DHT22;11908;50.806;4.424;2022-09-30T05:02:58;6.80;99.90
23471;DHT22;11908;50.806;4.424;2022-09-30T05:05:24;6.80;99.90
23471;DHT22;11908;50.806;4.424;2022-09-30T05:07:50;6.80;99.90
23471;DHT22;11908;50.806;4.424;2022-09-30T05:10:16;6.80;99.90
23471;DHT22;11908;50.806;4.424;2022-09-30T05:12:42;6.80;99.90
23471;DHT22;11908;50.806;4.424;2022-09-30T05:15:09;6.80;99.90
23471;DHT22;11908;50.806;4.424;2022-09-30T05:17:35;6.80;99.90
23471;DHT22;11908;50.806;4.424;2022-09-30T05:20:02;6.80;99.90
23471;DHT22;11908;50.806;4.424;2022-09-30T05:22:27;6.70;99.90
23471;DHT22;11908;50.806;4.424;2022-09-30T05:24:53;6.80;99.90
23471;DHT22;11908;50.806;4.424;2022-09-30T05:27:21;6.80;99.90
23471;DHT22;11908;50.806;4.424;2022-09-30T05:29:47;6.90;99.90
23471;DHT22;11908;50.806;4.424;2022-09-30T05:32:13;6.80;99.90
23471;DHT22;11908;50.806;4.424;2022-09-30T05:34:38;6.70;99.90
23471;DHT22;11908;50.806;4.424;2022-09-30T05:37:05;6.80;99.90
23471;DHT22;11908;50.806;4.424;2022-09-30T05:39:31;6.80;99.90
23471;DHT22;11908;50.806;4.424;2022-09-30T05:41:57;6.80;99.90
23471;DHT22;11908;50.806;4.424;2022-09-30T05:44:23;6.80;99.90
23471;DHT22;11908;50.806;4.424;2022-09-30T05:46:49;6.80;99.90
23471;DHT22;11908;50.806;4.424;2022-09-30T05:49:15;6.80;99.90
23471;DHT22;11908;50.806;4.424;2022-09-30T05:51:41;6.80;99.90
23471;DHT22;11908;50.806;4.424;2022-09-30T05:54:08;6.80;99.90
23471;DHT22;11908;50.806;4.424;2022-09-30T05:56:33;6.80;99.90
23471;DHT22;11908;50.806;4.424;2022-09-30T05:58:59;6.90;99.90
23471;DHT22;11908;50.806;4.424;2022-09-30T06:01:25;6.90;99.90
23471;DHT22;11908;50.806;4.424;2022-09-30T06:03:51;6.90;99.90
23471;DHT22;11908;50.806;4.424;2022-09-30T06:06:16;6.90;99.90
23471;DHT22;11908;50.806;4.424;2022-09-30T06:08:43;6.90;99.90
23471;DHT22;11908;50.806;4.424;2022-09-30T06:11:16;7.00;99.90
23471;DHT22;11908;50.806;4.424;2022-09-30T06:13:43;7.00;99.90
23471;DHT22;11908;50.806;4.424;2022-09-30T06:16:10;7.10;99.90
23471;DHT22;11908;50.806;4.424;2022-09-30T06:18:36;7.20;99.90
23471;DHT22;11908;50.806;4.424;2022-09-30T06:21:06;7.10;99.90
23471;DHT22;11908;50.806;4.424;2022-09-30T06:23:33;7.20;99.90
23471;DHT22;11908;50.806;4.424;2022-09-30T06:26:01;7.20;99.90
23471;DHT22;11908;50.806;4.424;2022-09-30T06:28:27;7.30;99.90
23471;DHT22;11908;50.806;4.424;2022-09-30T06:30:53;7.30;99.90
23471;DHT22;11908;50.806;4.424;2022-09-30T06:33:19;7.30;99.90
23471;DHT22;11908;50.806;4.424;2022-09-30T06:35:45;7.40;99.90
23471;DHT22;11908;50.806;4.424;2022-09-30T06:38:13;7.40;99.90
23471;DHT22;11908;50.806;4.424;2022-09-30T06:40:43;7.40;99.90
23471;DHT22;11908;50.806;4.424;2022-09-30T06:43:10;7.50;99.90
23471;DHT22;11908;50.806;4.424;2022-09-30T06:45:36;7.50;99.90
23471;DHT22;11908;50.806;4.424;2022-09-30T06:48:03;7.60;99.90
23471;DHT22;11908;50.806;4.424;2022-09-30T06:50:30;7.60;99.90
23471;DHT22;11908;50.806;4.424;2022-09-30T06:53:01;7.70;99.90
23471;DHT22;11908;50.806;4.424;2022-09-30T06:55:28;7.80;99.90
23471;DHT22;11908;50.806;4.424;2022-09-30T06:57:55;7.90;99.90
23471;DHT22;11908;50.806;4.424;2022-09-30T07:00:22;8.10;99.90
23471;DHT22;11908;50.806;4.424;2022-09-30T07:02:47;8.20;99.90
23471;DHT22;11908;50.806;4.424;2022-09-30T07:05:14;8.30;99.90
23471;DHT22;11908;50.806;4.424;2022-09-30T07:07:40;8.40;99.90
23471;DHT22;11908;50.806;4.424;2022-09-30T07:10:07;8.50;99.90
23471;DHT22;11908;50.806;4.424;2022-09-30T07:12:33;8.50;99.90
23471;DHT22;11908;50.806;4.424;2022-09-30T07:14:59;8.70;99.90
23471;DHT22;11908;50.806;4.424;2022-09-30T07:17:26;8.70;99.90
23471;DHT22;11908;50.806;4.424;2022-09-30T07:19:52;8.90;99.90
23471;DHT22;11908;50.806;4.424;2022-09-30T07:22:18;9.00;99.90
23471;DHT22;11908;50.806;4.424;2022-09-30T07:24:57;9.00;99.90
23471;DHT22;11908;50.806;4.424;2022-09-30T07:27:24;9.00;99.90
23471;DHT22;11908;50.806;4.424;2022-09-30T07:29:50;9.20;99.90
23471;DHT22;11908;50.806;4.424;2022-09-30T07:32:16;9.20;99.90
23471;DHT22;11908;50.806;4.424;2022-09-30T07:34:44;9.20;99.90
23471;DHT22;11908;50.806;4.424;2022-09-30T07:37:11;9.30;99.90
